sensor_id;sensor_type;location;lat;lon;timestamp;temperature;humidity
14014;DHT22;49110;52.584;13.408;2023-08-24T00:00:42;20.90;99.60
14014;DHT22;49110;52.584;13.408;2023-08-24T00:01:42;20.90;99.60
14014;DHT22;49110;52.584;13.408;2023-08-24T00:02:43;20.90;99.60
14014;DHT22;49110;52.584;13.408;2023-08-24T00:03:44;20.90;99.60
14014;DHT22;49110;52.584;13.408;2023-08-24T00:04:46;20.80;99.60
14014;DHT22;49110;52.584;13.408;2023-08-24T00:05:47;20.80;99.60
14014;DHT22;49110;52.584;13.408;2023-08-24T00:06:48;20.80;99.70
14014;DHT22;49110;52.584;13.408;2023-08-24T00:07:48;20.80;99.70
14014;DHT22;49110;52.584;13.408;2023-08-24T00:08:49;20.80;99.70
14014;DHT22;49110;52.584;13.408;2023-08-24T00:09:52;20.80;99.60
14014;DHT22;49110;52.584;13.408;2023-08-24T00:10:53;20.80;99.70
14014;DHT22;49110;52.584;13.408;2023-08-24T00:11:53;20.80;99.80
14014;DHT22;49110;52.584;13.408;2023-08-24T00:12:54;20.80;99.80
14014;DHT22;49110;52.584;13.408;2023-08-24T00:13:54;20.80;99.80
14014;DHT22;49110;52.584;13.408;2023-08-24T00:14:55;20.80;99.90
14014;DHT22;49110;52.584;13.408;2023-08-24T00:15:56;20.80;99.90
14014;DHT22;49110;52.584;13.408;2023-08-24T00:16:56;20.80;99.90
14014;DHT22;49110;52.584;13.408;2023-08-24T00:17:57;20.80;99.90
14014;DHT22;49110;52.584;13.408;2023-08-24T00:18:58;20.80;99.90
14014;DHT22;49110;52.584;13.408;2023-08-24T00:19:58;20.80;99.90
14014;DHT22;49110;52.584;13.408;2023-08-24T00:20:59;20.80;99.90
14014;DHT22;49110;52.584;13.408;2023-08-24T00:21:59;20.80;99.90
14014;DHT22;49110;52.584;13.408;2023-08-24T00:23:00;20.80;99.90
14014;DHT22;49110;52.584;13.408;2023-08-24T00:24:00;20.80;99.90
14014;DHT22;49110;52.584;13.408;2023-08-24T00:25:01;20.80;99.90
14014;DHT22;49110;52.584;13.408;2023-08-24T00:26:01;20.80;99.90
14014;DHT22;49110;52.584;13.408;2023-08-24T00:27:02;20.80;99.90
14014;DHT22;49110;52.584;13.408;2023-08-24T00:28:02;20.80;99.90
14014;DHT22;49110;52.584;13.408;2023-08-24T00:29:03;20.80;99.90
14014;DHT22;49110;52.584;13.408;2023-08-24T00:30:05;20.70;99.90
14014;DHT22;49110;52.584;13.408;2023-08-24T00:31:06;20.70;99.90
14014;DHT22;49110;52.584;13.408;2023-08-24T00:32:07;20.80;99.90
14014;DHT22;49110;52.584;13.408;2023-08-24T00:33:08;20.70;99.90
14014;DHT22;49110;52.584;13.408;2023-08-24T00:34:09;20.70;99.90
14014;DHT22;49110;52.584;13.408;2023-08-24T00:35:10;20.70;99.90
14014;DHT22;49110;52.584;13.408;2023-08-24T00:36:11;20.70;99.90
14014;DHT22;49110;52.584;13.408;2023-08-24T00:37:11;20.70;99.90
14014;DHT22;49110;52.584;13.408;2023-08-24T00:38:12;20.70;99.90
14014;DHT22;49110;52.584;13.408;2023-08-24T00:39:12;20.60;99.90
14014;DHT22;49110;52.584;13.408;2023-08-24T00:40:13;20.60;99.90
14014;DHT22;49110;52.584;13.408;2023-08-24T00:41:13;20.60;99.90
14014;DHT22;49110;52.584;13.408;2023-08-24T00:42:14;20.60;99.90
14014;DHT22;49110;52.584;13.408;2023-08-24T00:43:15;20.60;99.90
14014;DHT22;49110;52.584;13.408;2023-08-24T00:44:15;20.60;99.90
14014;DHT22;49110;52.584;13.408;2023-08-24T00:45:17;20.60;99.90
14014;DHT22;49110;52.584;13.408;2023-08-24T00:46:18;20.50;99.90
14014;DHT22;49110;52.584;13.408;2023-08-24T00:47:19;20.60;99.90
14014;DHT22;49110;52.584;13.408;2023-08-24T00:48:21;20.60;99.90
14014;DHT22;49110;52.584;13.408;2023-08-24T00:49:26;20.50;99.90
14014;DHT22;49110;52.584;13.408;2023-08-24T00:50:26;20.60;99.90
14014;DHT22;49110;52.584;13.408;2023-08-24T00:51:27;20.60;99.90
14014;DHT22;49110;52.584;13.408;2023-08-24T00:52:29;20.50;99.90
14014;DHT22;49110;52.584;13.408;2023-08-24T00:53:31;20.50;99.90
14014;DHT22;49110;52.584;13.408;2023-08-24T00:54:33;20.50;99.90
14014;DHT22;49110;52.584;13.408;2023-08-24T00:55:33;20.40;99.90
14014;DHT22;49110;52.584;13.408;2023-08-24T00:56:34;20.40;99.90
14014;DHT22;49110;52.584;13.408;2023-08-24T00:57:39;20.40;99.90
14014;DHT22;49110;52.584;13.408;2023-08-24T00:58:40;20.30;99.90
14014;DHT22;49110;52.584;13.408;2023-08-24T00:59:40;20.30;99.90
14014;DHT22;49110;52.584;13.408;2023-08-24T01:00:41;20.30;99.90
14014;DHT22;49110;52.584;13.408;2023-08-24T01:01:44;20.30;99.90
14014;DHT22;49110;52.584;13.408;2023-08-24T01:02:45;20.40;99.90
14014;DHT22;49110;52.584;13.408;2023-08-24T01:03:45;20.40;99.90
14014;DHT22;49110;52.584;13.408;2023-08-24T01:04:47;20.30;99.90
14014;DHT22;49110;52.584;13.408;2023-08-24T01:05:48;20.20;99.90
14014;DHT22;49110;52.584;13.408;2023-08-24T01:06:48;20.10;99.90
14014;DHT22;49110;52.584;13.408;2023-08-24T01:07:49;20.10;99.90
14014;DHT22;49110;52.584;13.408;2023-08-24T01:08:50;20.10;99.90
14014;DHT22;49110;52.584;13.408;2023-08-24T01:09:51;20.10;99.90
14014;DHT22;49110;52.584;13.408;2023-08-24T01:11:02;20.10;99.90
14014;DHT22;49110;52.584;13.408;2023-08-24T01:13:09;20.10;99.90
14014;DHT22;49110;52.584;13.408;2023-08-24T01:14:21;20.20;99.90
14014;DHT22;49110;52.584;13.408;2023-08-24T01:15:52;20.20;99.90
14014;DHT22;49110;52.584;13.408;2023-08-24T01:16:58;20.20;99.90
14014;DHT22;49110;52.584;13.408;2023-08-24T01:18:04;20.30;99.90
14014;DHT22;49110;52.584;13.408;2023-08-24T01:19:08;20.30;99.90
14014;DHT22;49110;52.584;13.408;2023-08-24T01:20:12;20.40;99.90
14014;DHT22;49110;52.584;13.408;2023-08-24T01:21:14;20.30;99.90
14014;DHT22;49110;52.584;13.408;2023-08-24T01:24:45;20.50;99.90
14014;DHT22;49110;52.584;13.408;2023-08-24T01:25:53;20.50;99.90
14014;DHT22;49110;52.584;13.408;2023-08-24T01:26:54;20.50;99.90
14014;DHT22;49110;52.584;13.408;2023-08-24T01:27:55;20.50;99.90
14014;DHT22;49110;52.584;13.408;2023-08-24T01:28:57;20.60;99.90
14014;DHT22;49110;52.584;13.408;2023-08-24T01:29:59;20.50;99.90
14014;DHT22;49110;52.584;13.408;2023-08-24T01:30:59;20.50;99.90
14014;DHT22;49110;52.584;13.408;2023-08-24T01:32:00;20.60;99.90
14014;DHT22;49110;52.584;13.408;2023-08-24T01:33:04;20.60;99.90
14014;DHT22;49110;52.584;13.408;2023-08-24T01:34:05;20.60;99.90
14014;DHT22;49110;52.584;13.408;2023-08-24T01:35:08;20.60;99.90
14014;DHT22;49110;52.584;13.408;2023-08-24T01:36:11;20.60;99.90
14014;DHT22;49110;52.584;13.408;2023-08-24T01:37:12;20.60;99.90
14014;DHT22;49110;52.584;13.408;2023-08-24T01:38:13;20.60;99.90
14014;DHT22;49110;52.584;13.408;2023-08-24T01:39:24;20.60;99.90
14014;DHT22;49110;52.584;13.408;2023-08-24T01:40:54;20.60;99.90
14014;DHT22;49110;52.584;13.408;2023-08-24T01:42:00;20.70;99.90
14014;DHT22;49110;52.584;13.408;2023-08-24T01:43:06;20.70;99.90
14014;DHT22;49110;52.584;13.408;2023-08-24T01:44:09;20.70;99.90
14014;DHT22;49110;52.584;13.408;2023-08-24T01:45:13;20.60;99.90
14014;DHT22;49110;52.584;13.408;2023-08-24T01:46:16;20.50;99.90
14014;DHT22;49110;52.584;13.408;2023-08-24T01:47:18;20.40;99.90
14014;DHT22;49110;52.584;13.408;2023-08-24T01:48:20;20.40;99.90
14014;DHT22;49110;52.584;13.408;2023-08-24T01:49:22;20.30;99.90
14014;DHT22;49110;52.584;13.408;2023-08-24T01:50:24;20.30;99.90
14014;DHT22;49110;52.584;13.408;2023-08-24T01:51:24;20.20;99.90
14014;DHT22;49110;52.584;13.408;2023-08-24T01:52:26;20.20;99.90
14014;DHT22;49110;52.584;13.408;2023-08-24T01:53:32;20.20;99.90
14014;DHT22;49110;52.584;13.408;2023-08-24T01:54:33;20.20;99.90
14014;DHT22;49110;52.584;13.408;2023-08-24T01:55:34;20.20;99.90
14014;DHT22;49110;52.584;13.408;2023-08-24T01:56:34;20.20;99.90
14014;DHT22;49110;52.584;13.408;2023-08-24T01:57:35;20.30;99.90
14014;DHT22;49110;52.584;13.408;2023-08-24T01:58:35;20.30;99.90
14014;DHT22;49110;52.584;13.408;2023-08-24T01:59:36;20.40;99.90
14014;DHT22;49110;52.584;13.408;2023-08-24T02:00:36;20.40;99.90
14014;DHT22;49110;52.584;13.408;2023-08-24T02:01:37;20.50;99.90
14014;DHT22;49110;52.584;13.408;2023-08-24T02:02:37;20.50;99.90
14014;DHT22;49110;52.584;13.408;2023-08-24T02:03:38;20.50;99.90
14014;DHT22;49110;52.584;13.408;2023-08-24T02:04:39;20.60;99.90
14014;DHT22;49110;52.584;13.408;2023-08-24T02:05:39;20.60;99.90
14014;DHT22;49110;52.584;13.408;2023-08-24T02:06:40;20.60;99.90
14014;DHT22;49110;52.584;13.408;2023-08-24T02:07:40;20.60;99.90
14014;DHT22;49110;52.584;13.408;2023-08-24T02:08:41;20.60;99.90
14014;DHT22;49110;52.584;13.408;2023-08-24T02:09:41;20.60;99.90
14014;DHT22;49110;52.584;13.408;2023-08-24T02:10:42;20.60;99.90
14014;DHT22;49110;52.584;13.408;2023-08-24T02:11:42;20.60;99.90
14014;DHT22;49110;52.584;13.408;2023-08-24T02:12:43;20.70;99.90
14014;DHT22;49110;52.584;13.408;2023-08-24T02:13:43;20.70;99.90
14014;DHT22;49110;52.584;13.408;2023-08-24T02:14:44;20.60;99.90
14014;DHT22;49110;52.584;13.408;2023-08-24T02:15:44;20.60;99.90
14014;DHT22;49110;52.584;13.408;2023-08-24T02:16:45;20.60;99.90
14014;DHT22;49110;52.584;13.408;2023-08-24T02:17:46;20.60;99.90
14014;DHT22;49110;52.584;13.408;2023-08-24T02:18:46;20.60;99.90
14014;DHT22;49110;52.584;13.408;2023-08-24T02:19:46;20.70;99.90
14014;DHT22;49110;52.584;13.408;2023-08-24T02:20:47;20.70;99.90
14014;DHT22;49110;52.584;13.408;2023-08-24T02:21:47;20.70;99.90
14014;DHT22;49110;52.584;13.408;2023-08-24T02:22:48;20.70;99.90
14014;DHT22;49110;52.584;13.408;2023-08-24T02:23:48;20.70;99.90
14014;DHT22;49110;52.584;13.408;2023-08-24T02:24:49;20.70;99.90
14014;DHT22;49110;52.584;13.408;2023-08-24T02:25:49;20.70;99.90
14014;DHT22;49110;52.584;13.408;2023-08-24T02:26:50;20.70;99.90
14014;DHT22;49110;52.584;13.408;2023-08-24T02:27:50;20.70;99.90
14014;DHT22;49110;52.584;13.408;2023-08-24T02:28:52;20.70;99.90
14014;DHT22;49110;52.584;13.408;2023-08-24T02:29:52;20.70;99.90
14014;DHT22;49110;52.584;13.408;2023-08-24T02:30:52;20.70;99.90
14014;DHT22;49110;52.584;13.408;2023-08-24T02:31:54;20.70;99.90
14014;DHT22;49110;52.584;13.408;2023-08-24T02:32:54;20.70;99.90
14014;DHT22;49110;52.584;13.408;2023-08-24T02:33:55;20.70;99.90
14014;DHT22;49110;52.584;13.408;2023-08-24T02:34:55;20.70;99.90
14014;DHT22;49110;52.584;13.408;2023-08-24T02:35:56;20.60;99.90
14014;DHT22;49110;52.584;13.408;2023-08-24T02:36:57;20.60;99.90
14014;DHT22;49110;52.584;13.408;2023-08-24T02:37:58;20.60;99.90
14014;DHT22;49110;52.584;13.408;2023-08-24T02:38:59;20.70;99.90
14014;DHT22;49110;52.584;13.408;2023-08-24T02:40:00;20.60;99.90
14014;DHT22;49110;52.584;13.408;2023-08-24T02:41:05;20.60;99.90
14014;DHT22;49110;52.584;13.408;2023-08-24T02:42:06;20.60;99.90
14014;DHT22;49110;52.584;13.408;2023-08-24T02:43:06;20.60;99.90
14014;DHT22;49110;52.584;13.408;2023-08-24T02:44:07;20.60;99.90
14014;DHT22;49110;52.584;13.408;2023-08-24T02:45:08;20.60;99.90
14014;DHT22;49110;52.584;13.408;2023-08-24T02:46:09;20.60;99.90
14014;DHT22;49110;52.584;13.408;2023-08-24T02:47:10;20.70;99.90
14014;DHT22;49110;52.584;13.408;2023-08-24T02:48:10;20.70;99.90
14014;DHT22;49110;52.584;13.408;2023-08-24T02:49:11;20.70;99.90
14014;DHT22;49110;52.584;13.408;2023-08-24T02:50:11;20.70;99.90
14014;DHT22;49110;52.584;13.408;2023-08-24T02:51:13;20.70;99.90
14014;DHT22;49110;52.584;13.408;2023-08-24T02:52:13;20.70;99.90
14014;DHT22;49110;52.584;13.408;2023-08-24T02:53:13;20.60;99.90
14014;DHT22;49110;52.584;13.408;2023-08-24T02:54:14;20.50;99.90
14014;DHT22;49110;52.584;13.408;2023-08-24T02:55:14;20.60;99.90
14014;DHT22;49110;52.584;13.408;2023-08-24T02:56:15;20.60;99.90
14014;DHT22;49110;52.584;13.408;2023-08-24T02:57:16;20.60;99.90
14014;DHT22;49110;52.584;13.408;2023-08-24T02:58:16;20.70;99.90
14014;DHT22;49110;52.584;13.408;2023-08-24T02:59:17;20.70;99.90
14014;DHT22;49110;52.584;13.408;2023-08-24T03:00:17;20.70;99.90
14014;DHT22;49110;52.584;13.408;2023-08-24T03:01:18;20.70;99.90
14014;DHT22;49110;52.584;13.408;2023-08-24T03:02:18;20.80;99.90
14014;DHT22;49110;52.584;13.408;2023-08-24T03:03:19;20.70;99.90
14014;DHT22;49110;52.584;13.408;2023-08-24T03:04:19;20.80;99.90
14014;DHT22;49110;52.584;13.408;2023-08-24T03:05:20;20.80;99.90
14014;DHT22;49110;52.584;13.408;2023-08-24T03:06:20;20.80;99.90
14014;DHT22;49110;52.584;13.408;2023-08-24T03:07:21;20.80;99.90
14014;DHT22;49110;52.584;13.408;2023-08-24T03:08:21;20.70;99.90
14014;DHT22;49110;52.584;13.408;2023-08-24T03:09:22;20.70;99.90
14014;DHT22;49110;52.584;13.408;2023-08-24T03:10:22;20.70;99.90
14014;DHT22;49110;52.584;13.408;2023-08-24T03:11:23;20.70;99.90
14014;DHT22;49110;52.584;13.408;2023-08-24T03:12:23;20.80;99.90
14014;DHT22;49110;52.584;13.408;2023-08-24T03:13:24;20.80;99.90
14014;DHT22;49110;52.584;13.408;2023-08-24T03:14:24;20.70;99.90
14014;DHT22;49110;52.584;13.408;2023-08-24T03:15:25;20.80;99.90
14014;DHT22;49110;52.584;13.408;2023-08-24T03:16:26;20.80;99.90
14014;DHT22;49110;52.584;13.408;2023-08-24T03:17:26;20.80;99.90
14014;DHT22;49110;52.584;13.408;2023-08-24T03:18:27;20.80;99.90
14014;DHT22;49110;52.584;13.408;2023-08-24T03:19:27;20.90;99.90
14014;DHT22;49110;52.584;13.408;2023-08-24T03:20:28;20.80;99.90
14014;DHT22;49110;52.584;13.408;2023-08-24T03:21:28;20.90;99.90
14014;DHT22;49110;52.584;13.408;2023-08-24T03:22:29;20.90;99.90
14014;DHT22;49110;52.584;13.408;2023-08-24T03:23:29;20.90;99.90
14014;DHT22;49110;52.584;13.408;2023-08-24T03:24:30;20.90;99.90
14014;DHT22;49110;52.584;13.408;2023-08-24T03:25:32;20.90;99.90
14014;DHT22;49110;52.584;13.408;2023-08-24T03:26:35;20.90;99.90
14014;DHT22;49110;52.584;13.408;2023-08-24T03:27:38;20.90;99.90
14014;DHT22;49110;52.584;13.408;2023-08-24T03:28:38;20.90;99.90
14014;DHT22;49110;52.584;13.408;2023-08-24T03:29:39;20.90;99.90
14014;DHT22;49110;52.584;13.408;2023-08-24T03:30:46;20.90;99.90
14014;DHT22;49110;52.584;13.408;2023-08-24T03:31:47;20.90;99.90
14014;DHT22;49110;52.584;13.408;2023-08-24T03:32:47;20.90;99.90
14014;DHT22;49110;52.584;13.408;2023-08-24T03:33:47;21.00;99.90
14014;DHT22;49110;52.584;13.408;2023-08-24T03:34:48;20.90;99.90
14014;DHT22;49110;52.584;13.408;2023-08-24T03:35:48;21.00;99.90
14014;DHT22;49110;52.584;13.408;2023-08-24T03:36:49;20.90;99.90
14014;DHT22;49110;52.584;13.408;2023-08-24T03:37:51;21.00;99.90
14014;DHT22;49110;52.584;13.408;2023-08-24T03:38:51;20.90;99.90
14014;DHT22;49110;52.584;13.408;2023-08-24T03:39:52;20.90;99.90
14014;DHT22;49110;52.584;13.408;2023-08-24T03:40:52;20.90;99.90
14014;DHT22;49110;52.584;13.408;2023-08-24T03:41:59;20.90;99.90
14014;DHT22;49110;52.584;13.408;2023-08-24T03:43:01;20.90;99.90
14014;DHT22;49110;52.584;13.408;2023-08-24T03:44:02;20.90;99.90
14014;DHT22;49110;52.584;13.408;2023-08-24T03:45:03;21.00;99.90
14014;DHT22;49110;52.584;13.408;2023-08-24T03:46:04;20.90;99.90
14014;DHT22;49110;52.584;13.408;2023-08-24T03:47:05;20.90;99.90
14014;DHT22;49110;52.584;13.408;2023-08-24T03:48:06;20.90;99.90
14014;DHT22;49110;52.584;13.408;2023-08-24T03:49:06;20.90;99.90
14014;DHT22;49110;52.584;13.408;2023-08-24T03:50:07;20.90;99.90
14014;DHT22;49110;52.584;13.408;2023-08-24T03:51:08;21.00;99.90
14014;DHT22;49110;52.584;13.408;2023-08-24T03:52:08;20.90;99.90
14014;DHT22;49110;52.584;13.408;2023-08-24T03:53:09;20.90;99.90
14014;DHT22;49110;52.584;13.408;2023-08-24T03:54:09;20.90;99.90
14014;DHT22;49110;52.584;13.408;2023-08-24T03:55:09;20.90;99.90
14014;DHT22;49110;52.584;13.408;2023-08-24T03:56:10;20.90;99.90
14014;DHT22;49110;52.584;13.408;2023-08-24T03:57:11;20.90;99.90
14014;DHT22;49110;52.584;13.408;2023-08-24T03:58:11;20.90;99.90
14014;DHT22;49110;52.584;13.408;2023-08-24T03:59:11;20.90;99.90
14014;DHT22;49110;52.584;13.408;2023-08-24T04:00:12;20.90;99.90
14014;DHT22;49110;52.584;13.408;2023-08-24T04:01:14;20.90;99.90
14014;DHT22;49110;52.584;13.408;2023-08-24T04:02:16;20.90;99.90
14014;DHT22;49110;52.584;13.408;2023-08-24T04:03:16;20.90;99.90
14014;DHT22;49110;52.584;13.408;2023-08-24T04:04:17;20.90;99.90
14014;DHT22;49110;52.584;13.408;2023-08-24T04:05:17;20.90;99.90
14014;DHT22;49110;52.584;13.408;2023-08-24T04:06:18;20.90;99.90
14014;DHT22;49110;52.584;13.408;2023-08-24T04:07:22;20.90;99.90
14014;DHT22;49110;52.584;13.408;2023-08-24T04:08:22;20.90;99.90
14014;DHT22;49110;52.584;13.408;2023-08-24T04:09:22;21.00;99.90
14014;DHT22;49110;52.584;13.408;2023-08-24T04:10:23;20.90;99.90
14014;DHT22;49110;52.584;13.408;2023-08-24T04:11:23;21.00;99.90
14014;DHT22;49110;52.584;13.408;2023-08-24T04:12:24;20.90;99.90
14014;DHT22;49110;52.584;13.408;2023-08-24T04:13:24;20.90;99.90
14014;DHT22;49110;52.584;13.408;2023-08-24T04:14:25;21.00;99.90
14014;DHT22;49110;52.584;13.408;2023-08-24T04:15:25;21.00;99.90
14014;DHT22;49110;52.584;13.408;2023-08-24T04:16:26;21.00;99.90
14014;DHT22;49110;52.584;13.408;2023-08-24T04:17:26;21.00;99.90
14014;DHT22;49110;52.584;13.408;2023-08-24T04:18:27;21.00;99.90
14014;DHT22;49110;52.584;13.408;2023-08-24T04:19:27;21.00;99.90
14014;DHT22;49110;52.584;13.408;2023-08-24T04:20:28;21.00;99.90
14014;DHT22;49110;52.584;13.408;2023-08-24T04:21:28;21.00;99.90
14014;DHT22;49110;52.584;13.408;2023-08-24T04:22:29;21.00;99.90
14014;DHT22;49110;52.584;13.408;2023-08-24T04:23:29;21.00;99.90
14014;DHT22;49110;52.584;13.408;2023-08-24T04:24:29;20.90;99.90
14014;DHT22;49110;52.584;13.408;2023-08-24T04:25:30;21.00;99.90
14014;DHT22;49110;52.584;13.408;2023-08-24T04:26:31;21.00;99.90
14014;DHT22;49110;52.584;13.408;2023-08-24T04:27:32;21.00;99.90
14014;DHT22;49110;52.584;13.408;2023-08-24T04:28:32;21.00;99.90
14014;DHT22;49110;52.584;13.408;2023-08-24T04:29:33;21.00;99.90
14014;DHT22;49110;52.584;13.408;2023-08-24T04:30:33;21.00;99.90
14014;DHT22;49110;52.584;13.408;2023-08-24T04:31:34;21.00;99.90
14014;DHT22;49110;52.584;13.408;2023-08-24T04:32:35;21.00;99.90
14014;DHT22;49110;52.584;13.408;2023-08-24T04:33:35;21.00;99.90
14014;DHT22;49110;52.584;13.408;2023-08-24T04:34:36;21.00;99.90
14014;DHT22;49110;52.584;13.408;2023-08-24T04:35:36;21.00;99.90
14014;DHT22;49110;52.584;13.408;2023-08-24T04:36:37;21.00;99.90
14014;DHT22;49110;52.584;13.408;2023-08-24T04:37:37;21.00;99.90
14014;DHT22;49110;52.584;13.408;2023-08-24T04:38:38;21.00;99.90
14014;DHT22;49110;52.584;13.408;2023-08-24T04:39:39;21.10;99.90
14014;DHT22;49110;52.584;13.408;2023-08-24T04:40:53;21.10;99.90
14014;DHT22;49110;52.584;13.408;2023-08-24T04:41:54;21.10;99.90
14014;DHT22;49110;52.584;13.408;2023-08-24T04:42:55;21.10;99.90
14014;DHT22;49110;52.584;13.408;2023-08-24T04:43:56;21.10;99.90
14014;DHT22;49110;52.584;13.408;2023-08-24T04:44:56;21.10;99.90
14014;DHT22;49110;52.584;13.408;2023-08-24T04:45:57;21.20;99.90
14014;DHT22;49110;52.584;13.408;2023-08-24T04:46:57;21.20;99.90
14014;DHT22;49110;52.584;13.408;2023-08-24T04:47:58;21.20;99.90
14014;DHT22;49110;52.584;13.408;2023-08-24T04:49:00;21.20;99.90
14014;DHT22;49110;52.584;13.408;2023-08-24T04:50:00;21.20;99.90
14014;DHT22;49110;52.584;13.408;2023-08-24T04:51:02;21.20;99.90
14014;DHT22;49110;52.584;13.408;2023-08-24T04:52:03;21.20;99.90
14014;DHT22;49110;52.584;13.408;2023-08-24T04:53:03;21.20;99.90
14014;DHT22;49110;52.584;13.408;2023-08-24T04:54:04;21.20;99.90
14014;DHT22;49110;52.584;13.408;2023-08-24T04:55:05;21.20;99.90
14014;DHT22;49110;52.584;13.408;2023-08-24T04:56:05;21.20;99.90
14014;DHT22;49110;52.584;13.408;2023-08-24T04:57:06;21.20;99.90
14014;DHT22;49110;52.584;13.408;2023-08-24T04:58:08;21.20;99.90
14014;DHT22;49110;52.584;13.408;2023-08-24T04:59:08;21.20;99.90
14014;DHT22;49110;52.584;13.408;2023-08-24T05:00:09;21.30;99.90
14014;DHT22;49110;52.584;13.408;2023-08-24T05:01:16;21.30;99.90
14014;DHT22;49110;52.584;13.408;2023-08-24T05:02:16;21.30;99.90
14014;DHT22;49110;52.584;13.408;2023-08-24T05:03:16;21.30;99.90
14014;DHT22;49110;52.584;13.408;2023-08-24T05:04:17;21.30;99.90
14014;DHT22;49110;52.584;13.408;2023-08-24T05:05:17;21.30;99.90
14014;DHT22;49110;52.584;13.408;2023-08-24T05:06:19;21.40;99.90
14014;DHT22;49110;52.584;13.408;2023-08-24T05:07:19;21.30;99.90
14014;DHT22;49110;52.584;13.408;2023-08-24T05:08:20;21.40;99.90
14014;DHT22;49110;52.584;13.408;2023-08-24T05:09:20;21.30;99.90
14014;DHT22;49110;52.584;13.408;2023-08-24T05:10:21;21.40;99.90
14014;DHT22;49110;52.584;13.408;2023-08-24T05:11:23;21.30;99.90
14014;DHT22;49110;52.584;13.408;2023-08-24T05:12:24;21.30;99.90
14014;DHT22;49110;52.584;13.408;2023-08-24T05:13:25;21.30;99.90
14014;DHT22;49110;52.584;13.408;2023-08-24T05:14:25;21.30;99.90
14014;DHT22;49110;52.584;13.408;2023-08-24T05:15:26;21.30;99.90
14014;DHT22;49110;52.584;13.408;2023-08-24T05:16:27;21.40;99.90
14014;DHT22;49110;52.584;13.408;2023-08-24T05:17:28;21.40;99.90
14014;DHT22;49110;52.584;13.408;2023-08-24T05:18:28;21.40;99.90
14014;DHT22;49110;52.584;13.408;2023-08-24T05:19:29;21.40;99.90
14014;DHT22;49110;52.584;13.408;2023-08-24T05:20:29;21.50;99.90
14014;DHT22;49110;52.584;13.408;2023-08-24T05:21:30;21.50;99.90
14014;DHT22;49110;52.584;13.408;2023-08-24T05:22:31;21.50;99.90
14014;DHT22;49110;52.584;13.408;2023-08-24T05:23:32;21.50;99.90
14014;DHT22;49110;52.584;13.408;2023-08-24T05:24:33;21.50;99.90
14014;DHT22;49110;52.584;13.408;2023-08-24T05:25:33;21.50;99.90
14014;DHT22;49110;52.584;13.408;2023-08-24T05:26:34;21.50;99.90
14014;DHT22;49110;52.584;13.408;2023-08-24T05:27:34;21.50;99.90
14014;DHT22;49110;52.584;13.408;2023-08-24T05:28:35;21.50;99.90
14014;DHT22;49110;52.584;13.408;2023-08-24T05:29:35;21.50;99.90
14014;DHT22;49110;52.584;13.408;2023-08-24T05:30:36;21.50;99.90
14014;DHT22;49110;52.584;13.408;2023-08-24T05:31:37;21.50;99.90
14014;DHT22;49110;52.584;13.408;2023-08-24T05:32:37;21.60;99.90
14014;DHT22;49110;52.584;13.408;2023-08-24T05:33:38;21.60;99.90
14014;DHT22;49110;52.584;13.408;2023-08-24T05:34:39;21.60;99.90
14014;DHT22;49110;52.584;13.408;2023-08-24T05:35:39;21.60;99.90
14014;DHT22;49110;52.584;13.408;2023-08-24T05:36:40;21.60;99.90
14014;DHT22;49110;52.584;13.408;2023-08-24T05:37:40;21.60;99.90
14014;DHT22;49110;52.584;13.408;2023-08-24T05:38:41;21.60;99.90
14014;DHT22;49110;52.584;13.408;2023-08-24T05:39:47;21.60;99.90
14014;DHT22;49110;52.584;13.408;2023-08-24T05:40:48;21.60;99.90
14014;DHT22;49110;52.584;13.408;2023-08-24T05:41:52;21.60;99.90
14014;DHT22;49110;52.584;13.408;2023-08-24T05:42:53;21.70;99.90
14014;DHT22;49110;52.584;13.408;2023-08-24T05:43:53;21.70;99.90
14014;DHT22;49110;52.584;13.408;2023-08-24T05:44:54;21.70;99.90
14014;DHT22;49110;52.584;13.408;2023-08-24T05:45:56;21.70;99.90
14014;DHT22;49110;52.584;13.408;2023-08-24T05:46:56;21.70;99.90
14014;DHT22;49110;52.584;13.408;2023-08-24T05:47:57;21.80;99.90
14014;DHT22;49110;52.584;13.408;2023-08-24T05:48:58;21.80;99.90
14014;DHT22;49110;52.584;13.408;2023-08-24T05:49:59;21.80;99.90
14014;DHT22;49110;52.584;13.408;2023-08-24T05:51:00;21.90;99.80
14014;DHT22;49110;52.584;13.408;2023-08-24T05:52:00;21.90;99.90
14014;DHT22;49110;52.584;13.408;2023-08-24T05:53:01;21.90;99.90
14014;DHT22;49110;52.584;13.408;2023-08-24T05:54:01;21.90;99.90
14014;DHT22;49110;52.584;13.408;2023-08-24T05:55:02;21.90;99.90
14014;DHT22;49110;52.584;13.408;2023-08-24T05:56:02;21.90;99.90
14014;DHT22;49110;52.584;13.408;2023-08-24T05:57:03;21.90;99.40
14014;DHT22;49110;52.584;13.408;2023-08-24T05:58:04;21.90;99.60
14014;DHT22;49110;52.584;13.408;2023-08-24T05:59:05;21.90;99.50
14014;DHT22;49110;52.584;13.408;2023-08-24T06:00:06;21.90;99.50
14014;DHT22;49110;52.584;13.408;2023-08-24T06:01:10;21.90;99.00
14014;DHT22;49110;52.584;13.408;2023-08-24T06:02:10;21.90;99.00
14014;DHT22;49110;52.584;13.408;2023-08-24T06:03:11;21.90;99.00
14014;DHT22;49110;52.584;13.408;2023-08-24T06:04:11;21.90;99.10
14014;DHT22;49110;52.584;13.408;2023-08-24T06:05:12;21.90;99.40
14014;DHT22;49110;52.584;13.408;2023-08-24T06:06:12;21.90;99.30
14014;DHT22;49110;52.584;13.408;2023-08-24T06:07:13;21.90;99.10
14014;DHT22;49110;52.584;13.408;2023-08-24T06:08:13;21.80;99.30
14014;DHT22;49110;52.584;13.408;2023-08-24T06:09:13;21.90;99.20
14014;DHT22;49110;52.584;13.408;2023-08-24T06:10:15;21.90;99.20
14014;DHT22;49110;52.584;13.408;2023-08-24T06:11:15;21.90;98.90
14014;DHT22;49110;52.584;13.408;2023-08-24T06:12:16;21.90;98.50
14014;DHT22;49110;52.584;13.408;2023-08-24T06:13:17;21.90;98.90
14014;DHT22;49110;52.584;13.408;2023-08-24T06:14:17;22.00;98.80
14014;DHT22;49110;52.584;13.408;2023-08-24T06:15:17;22.00;98.80
14014;DHT22;49110;52.584;13.408;2023-08-24T06:16:20;22.00;99.00
14014;DHT22;49110;52.584;13.408;2023-08-24T06:17:20;22.00;98.90
14014;DHT22;49110;52.584;13.408;2023-08-24T06:18:21;22.00;99.20
14014;DHT22;49110;52.584;13.408;2023-08-24T06:19:21;22.00;99.10
14014;DHT22;49110;52.584;13.408;2023-08-24T06:20:22;22.10;98.70
14014;DHT22;49110;52.584;13.408;2023-08-24T06:21:22;22.00;98.90
14014;DHT22;49110;52.584;13.408;2023-08-24T06:22:23;22.10;98.90
14014;DHT22;49110;52.584;13.408;2023-08-24T06:23:23;22.10;98.80
14014;DHT22;49110;52.584;13.408;2023-08-24T06:24:24;22.10;98.70